Terminal Aerodrome Forecast
Issued by NWS Lubbock, TX

Home | Current Version | Previous Version | Text Only | Print | Product List | Glossary On
Versions: 1 2 3 4 5 6 7 8 9 10 11 12 13 14 15 16 17 18
000
FTUS44 KLUB 252300
TAFLBB
TAF
KLBB 252327Z 2600/2624 25015KT P6SM SCT250
     FM260200 25011KT P6SM SCT250
     FM261400 35011KT P6SM SCT300
     FM262000 VRB06KT P6SM FEW250=

USA.gov is the U.S. government's official web portal to all federal, state and local government web resources and services.